sensor_id;sensor_type;location;lat;lon;timestamp;temperature;humidity
23507;DHT22;11930;53.076;18.250;2023-05-14T00:02:21;8.10;99.90
23507;DHT22;11930;53.076;18.250;2023-05-14T00:04:47;8.00;99.90
23507;DHT22;11930;53.076;18.250;2023-05-14T00:07:13;7.90;99.90
23507;DHT22;11930;53.076;18.250;2023-05-14T00:09:39;7.80;99.90
23507;DHT22;11930;53.076;18.250;2023-05-14T00:12:05;7.80;99.90
23507;DHT22;11930;53.076;18.250;2023-05-14T00:14:31;7.70;99.90
23507;DHT22;11930;53.076;18.250;2023-05-14T00:16:57;7.70;99.90
23507;DHT22;11930;53.076;18.250;2023-05-14T00:19:24;7.50;99.90
23507;DHT22;11930;53.076;18.250;2023-05-14T00:21:50;7.50;99.90
23507;DHT22;11930;53.076;18.250;2023-05-14T00:24:16;7.40;99.90
23507;DHT22;11930;53.076;18.250;2023-05-14T00:26:42;7.30;99.90
23507;DHT22;11930;53.076;18.250;2023-05-14T00:29:08;7.30;99.90
23507;DHT22;11930;53.076;18.250;2023-05-14T00:31:34;7.20;99.90
23507;DHT22;11930;53.076;18.250;2023-05-14T00:34:02;7.10;99.90
23507;DHT22;11930;53.076;18.250;2023-05-14T00:36:28;7.00;99.90
23507;DHT22;11930;53.076;18.250;2023-05-14T00:38:54;6.90;99.90
23507;DHT22;11930;53.076;18.250;2023-05-14T00:41:21;6.90;99.90
23507;DHT22;11930;53.076;18.250;2023-05-14T00:43:47;6.80;99.90
23507;DHT22;11930;53.076;18.250;2023-05-14T00:46:14;6.80;99.90
23507;DHT22;11930;53.076;18.250;2023-05-14T00:48:40;6.70;99.90
23507;DHT22;11930;53.076;18.250;2023-05-14T00:51:07;6.70;99.90
23507;DHT22;11930;53.076;18.250;2023-05-14T00:53:33;6.60;99.90
23507;DHT22;11930;53.076;18.250;2023-05-14T00:56:01;6.60;99.90
23507;DHT22;11930;53.076;18.250;2023-05-14T00:58:27;6.60;99.90
23507;DHT22;11930;53.076;18.250;2023-05-14T01:00:53;6.60;99.90
23507;DHT22;11930;53.076;18.250;2023-05-14T01:03:19;6.60;99.90
23507;DHT22;11930;53.076;18.250;2023-05-14T01:11:18;6.50;99.90
23507;DHT22;11930;53.076;18.250;2023-05-14T01:17:01;6.40;99.90
23507;DHT22;11930;53.076;18.250;2023-05-14T01:19:42;6.30;99.90
23507;DHT22;11930;53.076;18.250;2023-05-14T01:22:09;6.20;99.90
23507;DHT22;11930;53.076;18.250;2023-05-14T01:24:35;6.10;99.90
23507;DHT22;11930;53.076;18.250;2023-05-14T01:30:16;6.00;99.90
23507;DHT22;11930;53.076;18.250;2023-05-14T01:32:47;5.90;99.90
23507;DHT22;11930;53.076;18.250;2023-05-14T01:35:16;5.90;99.90
23507;DHT22;11930;53.076;18.250;2023-05-14T01:37:43;5.80;99.90
23507;DHT22;11930;53.076;18.250;2023-05-14T01:40:11;5.80;99.90
23507;DHT22;11930;53.076;18.250;2023-05-14T01:42:38;5.70;99.90
23507;DHT22;11930;53.076;18.250;2023-05-14T01:45:05;5.70;99.90
23507;DHT22;11930;53.076;18.250;2023-05-14T01:47:32;5.60;99.90
23507;DHT22;11930;53.076;18.250;2023-05-14T01:49:58;5.60;99.90
23507;DHT22;11930;53.076;18.250;2023-05-14T01:52:24;5.60;99.90
23507;DHT22;11930;53.076;18.250;2023-05-14T01:54:50;5.50;99.90
23507;DHT22;11930;53.076;18.250;2023-05-14T01:57:16;5.40;99.90
23507;DHT22;11930;53.076;18.250;2023-05-14T01:59:42;5.50;99.90
23507;DHT22;11930;53.076;18.250;2023-05-14T02:02:08;5.40;99.90
23507;DHT22;11930;53.076;18.250;2023-05-14T02:04:34;5.40;99.90
23507;DHT22;11930;53.076;18.250;2023-05-14T02:07:00;5.50;99.90
23507;DHT22;11930;53.076;18.250;2023-05-14T02:09:26;5.40;99.90
23507;DHT22;11930;53.076;18.250;2023-05-14T02:11:52;5.30;99.90
23507;DHT22;11930;53.076;18.250;2023-05-14T02:14:18;5.30;99.90
23507;DHT22;11930;53.076;18.250;2023-05-14T02:16:44;5.30;99.90
23507;DHT22;11930;53.076;18.250;2023-05-14T02:19:10;5.20;99.90
23507;DHT22;11930;53.076;18.250;2023-05-14T02:21:36;5.20;99.90
23507;DHT22;11930;53.076;18.250;2023-05-14T02:24:02;5.20;99.90
23507;DHT22;11930;53.076;18.250;2023-05-14T02:26:28;5.10;99.90
23507;DHT22;11930;53.076;18.250;2023-05-14T02:28:54;5.10;99.90
23507;DHT22;11930;53.076;18.250;2023-05-14T02:31:20;5.00;99.90
23507;DHT22;11930;53.076;18.250;2023-05-14T02:33:46;4.90;99.90
23507;DHT22;11930;53.076;18.250;2023-05-14T02:36:12;4.90;99.90
23507;DHT22;11930;53.076;18.250;2023-05-14T02:38:38;4.90;99.90
23507;DHT22;11930;53.076;18.250;2023-05-14T02:41:04;4.90;99.90
23507;DHT22;11930;53.076;18.250;2023-05-14T02:43:31;4.90;99.90
23507;DHT22;11930;53.076;18.250;2023-05-14T02:45:57;4.80;99.90
23507;DHT22;11930;53.076;18.250;2023-05-14T02:48:23;4.80;99.90
23507;DHT22;11930;53.076;18.250;2023-05-14T02:50:49;4.80;99.90
23507;DHT22;11930;53.076;18.250;2023-05-14T02:53:17;4.80;99.90
23507;DHT22;11930;53.076;18.250;2023-05-14T02:55:43;4.70;99.90
23507;DHT22;11930;53.076;18.250;2023-05-14T02:58:09;4.80;99.90
23507;DHT22;11930;53.076;18.250;2023-05-14T03:00:35;4.70;99.90
23507;DHT22;11930;53.076;18.250;2023-05-14T03:03:01;4.70;99.90
23507;DHT22;11930;53.076;18.250;2023-05-14T03:05:27;4.70;99.90
23507;DHT22;11930;53.076;18.250;2023-05-14T03:07:53;4.70;99.90
23507;DHT22;11930;53.076;18.250;2023-05-14T03:10:19;4.70;99.90
23507;DHT22;11930;53.076;18.250;2023-05-14T03:12:45;4.70;99.90
23507;DHT22;11930;53.076;18.250;2023-05-14T03:15:12;4.70;99.90
23507;DHT22;11930;53.076;18.250;2023-05-14T03:17:38;4.70;99.90
23507;DHT22;11930;53.076;18.250;2023-05-14T03:20:04;4.80;99.90
23507;DHT22;11930;53.076;18.250;2023-05-14T03:22:30;4.80;99.90
23507;DHT22;11930;53.076;18.250;2023-05-14T03:24:56;4.80;99.90
23507;DHT22;11930;53.076;18.250;2023-05-14T03:27:22;4.80;99.90
23507;DHT22;11930;53.076;18.250;2023-05-14T03:29:48;4.90;99.90
23507;DHT22;11930;53.076;18.250;2023-05-14T03:32:14;4.90;99.90
23507;DHT22;11930;53.076;18.250;2023-05-14T03:34:40;5.00;99.90
23507;DHT22;11930;53.076;18.250;2023-05-14T03:37:06;5.00;99.90
23507;DHT22;11930;53.076;18.250;2023-05-14T03:39:32;5.20;99.90
23507;DHT22;11930;53.076;18.250;2023-05-14T03:41:58;5.40;99.90
23507;DHT22;11930;53.076;18.250;2023-05-14T03:44:25;5.90;99.90
23507;DHT22;11930;53.076;18.250;2023-05-14T03:46:51;6.30;99.90
23507;DHT22;11930;53.076;18.250;2023-05-14T03:49:18;6.90;99.90
23507;DHT22;11930;53.076;18.250;2023-05-14T03:51:44;7.50;99.90
23507;DHT22;11930;53.076;18.250;2023-05-14T03:54:10;8.20;99.90
23507;DHT22;11930;53.076;18.250;2023-05-14T03:56:35;9.10;99.90
23507;DHT22;11930;53.076;18.250;2023-05-14T03:59:02;9.40;99.90
23507;DHT22;11930;53.076;18.250;2023-05-14T04:01:28;10.00;99.90
23507;DHT22;11930;53.076;18.250;2023-05-14T04:03:55;10.50;99.90
23507;DHT22;11930;53.076;18.250;2023-05-14T04:06:22;10.80;99.90
23507;DHT22;11930;53.076;18.250;2023-05-14T04:08:48;11.30;99.90
23507;DHT22;11930;53.076;18.250;2023-05-14T04:11:14;11.60;99.90
23507;DHT22;11930;53.076;18.250;2023-05-14T04:13:41;12.00;99.90
23507;DHT22;11930;53.076;18.250;2023-05-14T04:16:08;12.50;99.90
23507;DHT22;11930;53.076;18.250;2023-05-14T04:18:34;13.00;99.90
23507;DHT22;11930;53.076;18.250;2023-05-14T04:21:01;13.50;99.90
23507;DHT22;11930;53.076;18.250;2023-05-14T04:23:28;14.00;99.90
23507;DHT22;11930;53.076;18.250;2023-05-14T04:25:54;14.40;99.90
23507;DHT22;11930;53.076;18.250;2023-05-14T04:28:20;14.80;99.90
23507;DHT22;11930;53.076;18.250;2023-05-14T04:30:47;15.10;99.90
23507;DHT22;11930;53.076;18.250;2023-05-14T04:33:13;15.30;99.90
23507;DHT22;11930;53.076;18.250;2023-05-14T04:35:39;15.70;99.90
23507;DHT22;11930;53.076;18.250;2023-05-14T04:38:05;16.00;99.90
23507;DHT22;11930;53.076;18.250;2023-05-14T04:40:31;16.40;99.90
23507;DHT22;11930;53.076;18.250;2023-05-14T04:42:57;16.70;97.30
23507;DHT22;11930;53.076;18.250;2023-05-14T04:45:23;16.80;97.00
23507;DHT22;11930;53.076;18.250;2023-05-14T04:47:49;16.80;96.10
23507;DHT22;11930;53.076;18.250;2023-05-14T04:50:15;17.00;94.50
23507;DHT22;11930;53.076;18.250;2023-05-14T04:52:41;17.30;95.40
23507;DHT22;11930;53.076;18.250;2023-05-14T04:55:08;17.50;92.50
23507;DHT22;11930;53.076;18.250;2023-05-14T04:57:34;17.60;90.60
23507;DHT22;11930;53.076;18.250;2023-05-14T05:00:00;17.80;91.00
23507;DHT22;11930;53.076;18.250;2023-05-14T05:02:26;18.10;91.20
23507;DHT22;11930;53.076;18.250;2023-05-14T05:04:52;18.50;91.70
23507;DHT22;11930;53.076;18.250;2023-05-14T05:07:18;19.00;86.20
23507;DHT22;11930;53.076;18.250;2023-05-14T05:09:44;19.40;81.40
23507;DHT22;11930;53.076;18.250;2023-05-14T05:12:10;19.70;76.50
23507;DHT22;11930;53.076;18.250;2023-05-14T05:14:36;19.70;70.20
23507;DHT22;11930;53.076;18.250;2023-05-14T05:17:02;19.70;69.10
23507;DHT22;11930;53.076;18.250;2023-05-14T05:19:28;19.20;70.10
23507;DHT22;11930;53.076;18.250;2023-05-14T05:21:54;19.00;71.40
23507;DHT22;11930;53.076;18.250;2023-05-14T05:24:20;19.00;74.30
23507;DHT22;11930;53.076;18.250;2023-05-14T05:26:46;19.40;71.50
23507;DHT22;11930;53.076;18.250;2023-05-14T05:29:12;19.70;71.10
23507;DHT22;11930;53.076;18.250;2023-05-14T05:31:38;19.90;67.70
23507;DHT22;11930;53.076;18.250;2023-05-14T05:34:04;20.10;68.10
23507;DHT22;11930;53.076;18.250;2023-05-14T05:36:30;20.10;66.90
23507;DHT22;11930;53.076;18.250;2023-05-14T05:38:57;20.00;68.50
23507;DHT22;11930;53.076;18.250;2023-05-14T05:41:23;19.80;66.90
23507;DHT22;11930;53.076;18.250;2023-05-14T05:43:49;19.40;68.60
23507;DHT22;11930;53.076;18.250;2023-05-14T05:46:15;18.90;69.50
23507;DHT22;11930;53.076;18.250;2023-05-14T05:48:41;18.80;70.30
23507;DHT22;11930;53.076;18.250;2023-05-14T05:51:07;18.70;72.30
23507;DHT22;11930;53.076;18.250;2023-05-14T05:53:33;18.90;73.20
23507;DHT22;11930;53.076;18.250;2023-05-14T05:55:59;19.40;70.80
23507;DHT22;11930;53.076;18.250;2023-05-14T05:58:25;19.40;69.10
23507;DHT22;11930;53.076;18.250;2023-05-14T06:00:51;19.40;70.00
23507;DHT22;11930;53.076;18.250;2023-05-14T06:03:18;19.50;69.50
23507;DHT22;11930;53.076;18.250;2023-05-14T06:05:44;19.50;70.90
23507;DHT22;11930;53.076;18.250;2023-05-14T06:08:11;19.50;70.10
23507;DHT22;11930;53.076;18.250;2023-05-14T06:10:37;19.40;68.60
23507;DHT22;11930;53.076;18.250;2023-05-14T06:13:03;19.30;70.70
23507;DHT22;11930;53.076;18.250;2023-05-14T06:15:29;19.30;70.00
23507;DHT22;11930;53.076;18.250;2023-05-14T06:17:55;19.20;68.70
23507;DHT22;11930;53.076;18.250;2023-05-14T06:20:21;19.20;69.10
23507;DHT22;11930;53.076;18.250;2023-05-14T06:22:47;18.90;69.00
23507;DHT22;11930;53.076;18.250;2023-05-14T06:25:13;18.60;70.30
23507;DHT22;11930;53.076;18.250;2023-05-14T06:27:39;18.30;68.10
23507;DHT22;11930;53.076;18.250;2023-05-14T06:30:05;18.00;70.50
23507;DHT22;11930;53.076;18.250;2023-05-14T06:32:32;17.80;71.20
23507;DHT22;11930;53.076;18.250;2023-05-14T06:34:58;17.70;71.20
23507;DHT22;11930;53.076;18.250;2023-05-14T06:37:24;17.70;74.60
23507;DHT22;11930;53.076;18.250;2023-05-14T06:39:50;17.60;74.80
23507;DHT22;11930;53.076;18.250;2023-05-14T06:42:16;17.60;75.70
23507;DHT22;11930;53.076;18.250;2023-05-14T06:44:42;17.60;75.50
23507;DHT22;11930;53.076;18.250;2023-05-14T06:47:08;17.60;76.90
23507;DHT22;11930;53.076;18.250;2023-05-14T06:49:35;17.70;74.90
23507;DHT22;11930;53.076;18.250;2023-05-14T06:52:01;17.80;76.90
23507;DHT22;11930;53.076;18.250;2023-05-14T06:54:28;17.90;78.50
23507;DHT22;11930;53.076;18.250;2023-05-14T06:56:54;18.20;74.60
23507;DHT22;11930;53.076;18.250;2023-05-14T06:59:20;18.30;73.70
23507;DHT22;11930;53.076;18.250;2023-05-14T07:01:46;18.40;72.90
23507;DHT22;11930;53.076;18.250;2023-05-14T07:04:12;18.50;73.40
23507;DHT22;11930;53.076;18.250;2023-05-14T07:06:38;18.70;75.40
23507;DHT22;11930;53.076;18.250;2023-05-14T07:09:04;18.90;71.70
23507;DHT22;11930;53.076;18.250;2023-05-14T07:11:31;19.10;71.80
23507;DHT22;11930;53.076;18.250;2023-05-14T07:13:57;19.30;73.40
23507;DHT22;11930;53.076;18.250;2023-05-14T07:16:24;19.60;70.40
23507;DHT22;11930;53.076;18.250;2023-05-14T07:18:51;19.90;70.80
23507;DHT22;11930;53.076;18.250;2023-05-14T07:21:17;20.40;68.70
23507;DHT22;11930;53.076;18.250;2023-05-14T07:23:43;20.80;68.40
23507;DHT22;11930;53.076;18.250;2023-05-14T07:26:09;21.20;67.20
23507;DHT22;11930;53.076;18.250;2023-05-14T07:28:35;21.60;62.80
23507;DHT22;11930;53.076;18.250;2023-05-14T07:31:01;22.10;60.50
23507;DHT22;11930;53.076;18.250;2023-05-14T07:33:29;22.20;60.10
23507;DHT22;11930;53.076;18.250;2023-05-14T07:35:55;22.20;60.80
23507;DHT22;11930;53.076;18.250;2023-05-14T07:38:21;22.40;59.20
23507;DHT22;11930;53.076;18.250;2023-05-14T07:40:47;22.50;56.30
23507;DHT22;11930;53.076;18.250;2023-05-14T07:43:14;22.30;56.00
23507;DHT22;11930;53.076;18.250;2023-05-14T07:45:39;22.30;55.80
23507;DHT22;11930;53.076;18.250;2023-05-14T07:48:06;22.20;56.60
23507;DHT22;11930;53.076;18.250;2023-05-14T07:50:32;22.30;57.50
23507;DHT22;11930;53.076;18.250;2023-05-14T07:52:58;22.30;56.50
23507;DHT22;11930;53.076;18.250;2023-05-14T07:55:24;22.10;57.40
23507;DHT22;11930;53.076;18.250;2023-05-14T07:57:50;22.10;57.90
23507;DHT22;11930;53.076;18.250;2023-05-14T08:00:16;22.30;61.70
23507;DHT22;11930;53.076;18.250;2023-05-14T08:02:43;22.80;58.40
23507;DHT22;11930;53.076;18.250;2023-05-14T08:05:09;23.30;54.80
23507;DHT22;11930;53.076;18.250;2023-05-14T08:07:35;23.30;54.30
23507;DHT22;11930;53.076;18.250;2023-05-14T08:10:01;23.10;53.40
23507;DHT22;11930;53.076;18.250;2023-05-14T08:12:28;22.80;54.60
23507;DHT22;11930;53.076;18.250;2023-05-14T08:14:55;22.50;54.40
23507;DHT22;11930;53.076;18.250;2023-05-14T08:17:21;22.40;55.80
23507;DHT22;11930;53.076;18.250;2023-05-14T08:19:47;22.60;56.20
23507;DHT22;11930;53.076;18.250;2023-05-14T08:22:14;22.70;54.70
23507;DHT22;11930;53.076;18.250;2023-05-14T08:24:40;22.90;53.40
23507;DHT22;11930;53.076;18.250;2023-05-14T08:29:34;23.10;53.00
23507;DHT22;11930;53.076;18.250;2023-05-14T08:32:00;23.20;51.80
23507;DHT22;11930;53.076;18.250;2023-05-14T08:34:26;23.30;51.60
23507;DHT22;11930;53.076;18.250;2023-05-14T08:36:53;23.60;51.40
23507;DHT22;11930;53.076;18.250;2023-05-14T08:39:19;23.90;51.00
23507;DHT22;11930;53.076;18.250;2023-05-14T08:41:46;24.10;50.00
23507;DHT22;11930;53.076;18.250;2023-05-14T08:44:14;24.30;48.50
23507;DHT22;11930;53.076;18.250;2023-05-14T08:46:41;24.40;48.20
23507;DHT22;11930;53.076;18.250;2023-05-14T08:51:55;24.50;48.20
23507;DHT22;11930;53.076;18.250;2023-05-14T08:54:21;24.70;45.20
23507;DHT22;11930;53.076;18.250;2023-05-14T08:56:50;24.70;44.40
23507;DHT22;11930;53.076;18.250;2023-05-14T08:59:16;24.70;44.70
23507;DHT22;11930;53.076;18.250;2023-05-14T09:01:46;24.50;44.00
23507;DHT22;11930;53.076;18.250;2023-05-14T09:04:14;24.30;45.20
23507;DHT22;11930;53.076;18.250;2023-05-14T09:06:42;24.10;43.80
23507;DHT22;11930;53.076;18.250;2023-05-14T09:09:08;24.10;45.00
23507;DHT22;11930;53.076;18.250;2023-05-14T09:11:40;24.00;45.70
23507;DHT22;11930;53.076;18.250;2023-05-14T09:14:07;23.70;44.70
23507;DHT22;11930;53.076;18.250;2023-05-14T09:16:34;23.00;45.30
23507;DHT22;11930;53.076;18.250;2023-05-14T09:19:05;22.90;45.10
23507;DHT22;11930;53.076;18.250;2023-05-14T09:21:32;22.60;44.40
23507;DHT22;11930;53.076;18.250;2023-05-14T09:23:58;22.50;44.80
23507;DHT22;11930;53.076;18.250;2023-05-14T09:26:25;22.50;44.20
23507;DHT22;11930;53.076;18.250;2023-05-14T09:28:55;22.60;43.90
23507;DHT22;11930;53.076;18.250;2023-05-14T09:31:22;22.70;44.10
23507;DHT22;11930;53.076;18.250;2023-05-14T09:33:51;22.80;43.20
23507;DHT22;11930;53.076;18.250;2023-05-14T09:36:18;22.70;42.40
23507;DHT22;11930;53.076;18.250;2023-05-14T09:38:44;22.60;43.70
23507;DHT22;11930;53.076;18.250;2023-05-14T09:41:11;22.70;44.00
23507;DHT22;11930;53.076;18.250;2023-05-14T09:43:37;22.80;44.30
23507;DHT22;11930;53.076;18.250;2023-05-14T09:46:03;22.70;43.10
23507;DHT22;11930;53.076;18.250;2023-05-14T09:48:29;22.60;44.10
23507;DHT22;11930;53.076;18.250;2023-05-14T09:50:55;22.60;45.00
23507;DHT22;11930;53.076;18.250;2023-05-14T09:53:21;22.50;44.50
23507;DHT22;11930;53.076;18.250;2023-05-14T09:55:48;22.60;43.30
23507;DHT22;11930;53.076;18.250;2023-05-14T09:58:13;22.60;42.50
23507;DHT22;11930;53.076;18.250;2023-05-14T10:00:44;22.70;41.80
23507;DHT22;11930;53.076;18.250;2023-05-14T10:03:13;22.70;42.10
23507;DHT22;11930;53.076;18.250;2023-05-14T10:05:40;22.80;42.50
23507;DHT22;11930;53.076;18.250;2023-05-14T10:08:18;22.90;43.20
23507;DHT22;11930;53.076;18.250;2023-05-14T10:10:45;23.00;42.10
23507;DHT22;11930;53.076;18.250;2023-05-14T10:13:13;22.90;42.30
23507;DHT22;11930;53.076;18.250;2023-05-14T10:15:47;23.00;41.20
23507;DHT22;11930;53.076;18.250;2023-05-14T10:18:19;23.00;40.40
23507;DHT22;11930;53.076;18.250;2023-05-14T10:20:47;23.20;42.20
23507;DHT22;11930;53.076;18.250;2023-05-14T10:23:17;23.40;41.10
23507;DHT22;11930;53.076;18.250;2023-05-14T10:25:43;23.40;39.50
23507;DHT22;11930;53.076;18.250;2023-05-14T10:28:10;23.30;40.20
23507;DHT22;11930;53.076;18.250;2023-05-14T10:30:43;23.00;39.70
23507;DHT22;11930;53.076;18.250;2023-05-14T10:33:12;23.00;39.30
23507;DHT22;11930;53.076;18.250;2023-05-14T10:35:51;23.00;40.40
23507;DHT22;11930;53.076;18.250;2023-05-14T10:38:25;23.10;39.00
23507;DHT22;11930;53.076;18.250;2023-05-14T10:41:11;23.20;38.70
23507;DHT22;11930;53.076;18.250;2023-05-14T10:43:40;23.10;39.00
23507;DHT22;11930;53.076;18.250;2023-05-14T10:46:08;23.10;39.70
23507;DHT22;11930;53.076;18.250;2023-05-14T10:48:36;23.00;40.20
23507;DHT22;11930;53.076;18.250;2023-05-14T10:51:06;22.90;40.10
23507;DHT22;11930;53.076;18.250;2023-05-14T10:53:40;22.90;41.40
23507;DHT22;11930;53.076;18.250;2023-05-14T10:56:09;23.10;40.90
23507;DHT22;11930;53.076;18.250;2023-05-14T10:58:39;23.10;40.90
23507;DHT22;11930;53.076;18.250;2023-05-14T11:01:07;23.10;39.10
23507;DHT22;11930;53.076;18.250;2023-05-14T11:03:41;22.90;39.80
23507;DHT22;11930;53.076;18.250;2023-05-14T11:06:11;22.80;40.50
23507;DHT22;11930;53.076;18.250;2023-05-14T11:08:38;22.60;41.90
23507;DHT22;11930;53.076;18.250;2023-05-14T11:11:05;22.50;41.70
23507;DHT22;11930;53.076;18.250;2023-05-14T11:13:31;22.40;41.20
23507;DHT22;11930;53.076;18.250;2023-05-14T11:16:00;22.30;42.00
23507;DHT22;11930;53.076;18.250;2023-05-14T11:18:28;22.20;41.10
23507;DHT22;11930;53.076;18.250;2023-05-14T11:20:57;22.20;41.70
23507;DHT22;11930;53.076;18.250;2023-05-14T11:23:24;22.20;43.00
23507;DHT22;11930;53.076;18.250;2023-05-14T11:25:51;22.20;42.50
23507;DHT22;11930;53.076;18.250;2023-05-14T11:28:22;22.20;42.90
23507;DHT22;11930;53.076;18.250;2023-05-14T11:30:49;22.20;41.80
23507;DHT22;11930;53.076;18.250;2023-05-14T11:33:16;22.20;43.40
23507;DHT22;11930;53.076;18.250;2023-05-14T11:35:42;22.40;42.70
23507;DHT22;11930;53.076;18.250;2023-05-14T11:38:20;22.50;43.90
23507;DHT22;11930;53.076;18.250;2023-05-14T11:40:55;22.60;39.20
23507;DHT22;11930;53.076;18.250;2023-05-14T11:43:21;22.60;40.40
23507;DHT22;11930;53.076;18.250;2023-05-14T11:45:53;22.80;39.60
23507;DHT22;11930;53.076;18.250;2023-05-14T11:48:20;22.80;41.20
23507;DHT22;11930;53.076;18.250;2023-05-14T11:50:48;22.80;41.60
23507;DHT22;11930;53.076;18.250;2023-05-14T11:53:18;22.80;42.20
23507;DHT22;11930;53.076;18.250;2023-05-14T11:55:45;22.60;39.40
23507;DHT22;11930;53.076;18.250;2023-05-14T11:58:12;22.60;39.90
23507;DHT22;11930;53.076;18.250;2023-05-14T12:00:38;22.50;40.80
23507;DHT22;11930;53.076;18.250;2023-05-14T12:03:05;22.60;41.80
23507;DHT22;11930;53.076;18.250;2023-05-14T12:05:31;22.60;42.60
23507;DHT22;11930;53.076;18.250;2023-05-14T12:07:57;22.60;41.40
23507;DHT22;11930;53.076;18.250;2023-05-14T12:10:23;22.60;41.20
23507;DHT22;11930;53.076;18.250;2023-05-14T12:12:49;22.80;41.90
23507;DHT22;11930;53.076;18.250;2023-05-14T12:15:16;23.00;40.30
23507;DHT22;11930;53.076;18.250;2023-05-14T12:17:48;23.10;39.20
23507;DHT22;11930;53.076;18.250;2023-05-14T12:20:16;23.00;38.60
23507;DHT22;11930;53.076;18.250;2023-05-14T12:22:41;22.90;38.50
23507;DHT22;11930;53.076;18.250;2023-05-14T12:25:12;22.80;38.20
23507;DHT22;11930;53.076;18.250;2023-05-14T12:27:38;22.80;40.20
23507;DHT22;11930;53.076;18.250;2023-05-14T12:30:06;22.80;39.00
23507;DHT22;11930;53.076;18.250;2023-05-14T12:32:33;22.80;39.20
23507;DHT22;11930;53.076;18.250;2023-05-14T12:35:00;23.00;38.50
23507;DHT22;11930;53.076;18.250;2023-05-14T12:37:26;23.00;39.30
23507;DHT22;11930;53.076;18.250;2023-05-14T12:39:53;23.10;39.20
23507;DHT22;11930;53.076;18.250;2023-05-14T12:42:19;23.10;40.20
23507;DHT22;11930;53.076;18.250;2023-05-14T12:44:45;23.00;39.00
23507;DHT22;11930;53.076;18.250;2023-05-14T12:47:11;23.00;40.70
23507;DHT22;11930;53.076;18.250;2023-05-14T12:49:37;23.00;40.00
23507;DHT22;11930;53.076;18.250;2023-05-14T12:52:06;22.90;39.40
23507;DHT22;11930;53.076;18.250;2023-05-14T12:54:37;22.70;39.20
23507;DHT22;11930;53.076;18.250;2023-05-14T12:57:06;22.60;40.10
23507;DHT22;11930;53.076;18.250;2023-05-14T12:59:32;22.60;40.50
23507;DHT22;11930;53.076;18.250;2023-05-14T13:01:58;22.50;40.50
23507;DHT22;11930;53.076;18.250;2023-05-14T13:04:24;22.40;41.10
23507;DHT22;11930;53.076;18.250;2023-05-14T13:06:51;22.40;41.00
23507;DHT22;11930;53.076;18.250;2023-05-14T13:09:17;22.40;41.00
23507;DHT22;11930;53.076;18.250;2023-05-14T13:11:43;22.50;39.60
23507;DHT22;11930;53.076;18.250;2023-05-14T13:14:09;22.40;39.60
23507;DHT22;11930;53.076;18.250;2023-05-14T13:16:35;22.30;40.20
23507;DHT22;11930;53.076;18.250;2023-05-14T13:19:01;22.20;40.80
23507;DHT22;11930;53.076;18.250;2023-05-14T13:21:27;22.10;41.70
23507;DHT22;11930;53.076;18.250;2023-05-14T13:23:53;22.80;42.40
23507;DHT22;11930;53.076;18.250;2023-05-14T13:26:19;22.20;41.50
23507;DHT22;11930;53.076;18.250;2023-05-14T13:28:45;22.30;40.70
23507;DHT22;11930;53.076;18.250;2023-05-14T13:31:12;22.30;40.70
23507;DHT22;11930;53.076;18.250;2023-05-14T13:33:41;22.20;41.20
23507;DHT22;11930;53.076;18.250;2023-05-14T13:36:07;22.20;41.50
23507;DHT22;11930;53.076;18.250;2023-05-14T13:38:33;22.20;41.10
23507;DHT22;11930;53.076;18.250;2023-05-14T13:40:59;22.20;41.50
23507;DHT22;11930;53.076;18.250;2023-05-14T13:43:32;22.20;42.30
23507;DHT22;11930;53.076;18.250;2023-05-14T13:45:59;22.20;42.00
23507;DHT22;11930;53.076;18.250;2023-05-14T13:48:26;22.20;42.40
23507;DHT22;11930;53.076;18.250;2023-05-14T13:50:52;22.20;43.30
23507;DHT22;11930;53.076;18.250;2023-05-14T13:53:19;22.20;43.00
23507;DHT22;11930;53.076;18.250;2023-05-14T13:55:46;22.20;41.70
23507;DHT22;11930;53.076;18.250;2023-05-14T13:58:12;22.20;42.70
23507;DHT22;11930;53.076;18.250;2023-05-14T14:00:38;22.30;43.10
23507;DHT22;11930;53.076;18.250;2023-05-14T14:03:05;22.30;40.50
23507;DHT22;11930;53.076;18.250;2023-05-14T14:05:32;22.20;41.10
23507;DHT22;11930;53.076;18.250;2023-05-14T14:07:58;22.10;42.10
23507;DHT22;11930;53.076;18.250;2023-05-14T14:10:24;22.10;42.30
23507;DHT22;11930;53.076;18.250;2023-05-14T14:12:51;22.10;41.80
23507;DHT22;11930;53.076;18.250;2023-05-14T14:15:17;22.20;42.60
23507;DHT22;11930;53.076;18.250;2023-05-14T14:17:43;22.20;43.00
23507;DHT22;11930;53.076;18.250;2023-05-14T14:20:09;22.20;42.10
23507;DHT22;11930;53.076;18.250;2023-05-14T14:22:36;22.10;42.30
23507;DHT22;11930;53.076;18.250;2023-05-14T14:25:02;22.10;42.30
23507;DHT22;11930;53.076;18.250;2023-05-14T14:27:29;22.10;43.00
23507;DHT22;11930;53.076;18.250;2023-05-14T14:30:00;22.10;43.40
23507;DHT22;11930;53.076;18.250;2023-05-14T14:32:26;22.10;42.80
23507;DHT22;11930;53.076;18.250;2023-05-14T14:34:53;22.00;42.80
23507;DHT22;11930;53.076;18.250;2023-05-14T14:37:19;22.10;44.30
23507;DHT22;11930;53.076;18.250;2023-05-14T14:39:45;22.10;43.40
23507;DHT22;11930;53.076;18.250;2023-05-14T14:42:11;22.20;41.80
23507;DHT22;11930;53.076;18.250;2023-05-14T14:44:37;22.20;42.90
23507;DHT22;11930;53.076;18.250;2023-05-14T14:47:03;22.30;42.40
23507;DHT22;11930;53.076;18.250;2023-05-14T14:49:29;22.20;41.30
23507;DHT22;11930;53.076;18.250;2023-05-14T14:51:57;22.20;42.90
23507;DHT22;11930;53.076;18.250;2023-05-14T14:54:23;22.20;42.30
23507;DHT22;11930;53.076;18.250;2023-05-14T14:56:49;22.10;42.20
23507;DHT22;11930;53.076;18.250;2023-05-14T14:59:17;22.00;42.60
23507;DHT22;11930;53.076;18.250;2023-05-14T15:01:43;22.00;42.40
23507;DHT22;11930;53.076;18.250;2023-05-14T15:04:09;22.10;43.40
23507;DHT22;11930;53.076;18.250;2023-05-14T15:06:35;22.10;42.50
23507;DHT22;11930;53.076;18.250;2023-05-14T15:09:01;22.10;42.70
23507;DHT22;11930;53.076;18.250;2023-05-14T15:11:27;22.10;42.70
23507;DHT22;11930;53.076;18.250;2023-05-14T15:13:53;22.00;42.30
23507;DHT22;11930;53.076;18.250;2023-05-14T15:16:19;22.00;43.20
23507;DHT22;11930;53.076;18.250;2023-05-14T15:18:45;22.00;43.30
23507;DHT22;11930;53.076;18.250;2023-05-14T15:21:12;22.00;43.40
23507;DHT22;11930;53.076;18.250;2023-05-14T15:23:38;22.00;43.90
23507;DHT22;11930;53.076;18.250;2023-05-14T15:26:04;22.00;43.40
23507;DHT22;11930;53.076;18.250;2023-05-14T15:28:30;22.00;43.70
23507;DHT22;11930;53.076;18.250;2023-05-14T15:30:56;22.10;43.70
23507;DHT22;11930;53.076;18.250;2023-05-14T15:33:22;22.10;43.60
23507;DHT22;11930;53.076;18.250;2023-05-14T15:35:48;22.10;44.40